Time;durP1;ratioP1;P1;durP2;ratioP2;P2;SDS_P1;SDS_P2;PMS_P1;PMS_P2;Temp;Humidity;BMP_temperature;BMP_pressure;BME280_temperature;BME280_humidity;BME280_pressure;Samples;Min_cycle;Max_cycle;Signal;HPM_P1;HPM_P2
2023/07/01 00:00:58;;;;;;;6.75;2.92;;;17.10;96.80;;;;;;5052041;28;20021;-67
2023/07/01 00:03:24;;;;;;;5.72;2.42;;;17.10;96.80;;;;;;5052283;28;20026;-66
2023/07/01 00:05:50;;;;;;;5.35;2.65;;;17.10;96.70;;;;;;5050987;28;20127;-66
2023/07/01 00:08:16;;;;;;;4.55;2.25;;;17.20;96.60;;;;;;5052008;28;20060;-66
2023/07/01 00:10:41;;;;;;;4.43;2.60;;;17.20;96.90;;;;;;5052301;28;20457;-67
2023/07/01 00:13:07;;;;;;;9.32;2.67;;;17.20;96.70;;;;;;5050647;28;20029;-65
2023/07/01 00:15:34;;;;;;;2.78;2.22;;;17.20;96.60;;;;;;5050665;28;20363;-66
2023/07/01 00:17:59;;;;;;;4.63;2.83;;;17.20;96.60;;;;;;5051987;28;20100;-66
2023/07/01 00:20:26;;;;;;;6.43;2.30;;;17.20;96.80;;;;;;5051760;28;20044;-66
2023/07/01 00:22:53;;;;;;;8.00;2.75;;;17.20;96.90;;;;;;5052230;28;20470;-67
2023/07/01 00:25:19;;;;;;;3.75;2.60;;;17.10;96.90;;;;;;5050588;28;20033;-66
2023/07/01 00:27:45;;;;;;;7.70;2.53;;;17.20;96.90;;;;;;5051631;28;20062;-66
2023/07/01 00:30:11;;;;;;;7.88;2.85;;;17.10;97.00;;;;;;5051331;28;20061;-66
2023/07/01 00:32:36;;;;;;;3.75;2.55;;;17.10;97.00;;;;;;5051396;28;20037;-66
2023/07/01 00:35:02;;;;;;;3.85;2.65;;;17.10;97.10;;;;;;5051228;28;20561;-66
2023/07/01 00:37:28;;;;;;;3.92;2.33;;;17.10;97.20;;;;;;5052224;28;20068;-65
2023/07/01 00:39:53;;;;;;;7.07;2.90;;;17.10;97.00;;;;;;5051576;28;20112;-67
2023/07/01 00:42:19;;;;;;;6.78;2.08;;;17.10;97.10;;;;;;5051302;28;20111;-66
2023/07/01 00:44:44;;;;;;;10.38;2.50;;;17.00;97.00;;;;;;5051238;28;20037;-66
2023/07/01 00:47:10;;;;;;;6.18;2.30;;;17.00;97.00;;;;;;5050660;28;20060;-66
2023/07/01 00:49:38;;;;;;;2.65;2.00;;;17.00;97.20;;;;;;5051788;28;20113;-67
2023/07/01 00:52:05;;;;;;;4.67;2.37;;;17.10;97.20;;;;;;5051348;28;20052;-67
2023/07/01 00:54:30;;;;;;;6.60;2.45;;;17.00;97.10;;;;;;5050076;28;20288;-67
2023/07/01 00:56:56;;;;;;;6.55;2.10;;;17.00;97.20;;;;;;5051053;28;20036;-66
2023/07/01 00:59:22;;;;;;;5.50;2.78;;;17.00;97.40;;;;;;5049818;28;20060;-66
2023/07/01 01:01:53;;;;;;;3.15;2.17;;;17.00;97.30;;;;;;5050435;28;20025;-66
2023/07/01 01:04:44;;;;;;;3.70;2.30;;;17.00;97.20;;;;;;5049655;28;20419;-66
2023/07/01 01:07:51;;;;;;;2.30;2.00;;;17.00;97.20;;;;;;5051053;28;20478;-66
2023/07/01 01:10:24;;;;;;;7.03;2.63;;;17.10;97.20;;;;;;5039400;28;20511;-66
2023/07/01 01:12:56;;;;;;;4.03;2.22;;;17.00;97.10;;;;;;5051105;28;20051;-67
2023/07/01 01:15:23;;;;;;;3.72;2.10;;;17.00;97.10;;;;;;5049587;28;20044;-66
2023/07/01 01:17:52;;;;;;;7.65;2.13;;;17.10;96.90;;;;;;5050249;28;20029;-66
2023/07/01 01:20:20;;;;;;;3.03;1.70;;;17.10;97.00;;;;;;5050260;28;20083;-67
2023/07/01 01:23:07;;;;;;;3.78;2.00;;;17.10;97.00;;;;;;5050899;28;20021;-66
2023/07/01 01:25:47;;;;;;;7.65;2.00;;;17.10;97.00;;;;;;5050669;28;20037;-67
2023/07/01 01:28:13;;;;;;;2.85;1.77;;;17.10;97.00;;;;;;5050525;28;20071;-66
2023/07/01 01:30:39;;;;;;;5.00;2.10;;;17.10;96.80;;;;;;5049985;28;20472;-66
2023/07/01 01:33:06;;;;;;;6.25;2.08;;;17.10;96.80;;;;;;5050268;28;20087;-67
2023/07/01 01:35:32;;;;;;;3.15;2.10;;;17.10;96.70;;;;;;5048946;28;20371;-68
2023/07/01 01:38:05;;;;;;;4.60;2.00;;;17.20;96.70;;;;;;5050680;28;20028;-66
2023/07/01 01:40:43;;;;;;;2.95;1.80;;;17.20;96.70;;;;;;5050221;28;20467;-68
2023/07/01 01:43:34;;;;;;;7.15;2.42;;;17.20;96.50;;;;;;5050472;28;20292;-67
2023/07/01 01:46:01;;;;;;;7.75;2.33;;;17.20;96.60;;;;;;5050715;28;20029;-67
2023/07/01 01:48:27;;;;;;;2.28;1.70;;;17.20;96.70;;;;;;5082759;28;20056;-66
2023/07/01 01:50:56;;;;;;;3.88;1.77;;;17.20;96.60;;;;;;5050321;28;20114;-65
2023/07/01 01:53:23;;;;;;;2.35;1.45;;;17.20;96.60;;;;;;5049897;28;20418;-67
2023/07/01 01:55:50;;;;;;;3.53;1.63;;;17.20;96.50;;;;;;5050820;28;20454;-67
2023/07/01 01:58:16;;;;;;;5.65;1.83;;;17.20;96.60;;;;;;5049954;28;20411;-66
2023/07/01 02:00:44;;;;;;;3.20;1.70;;;17.20;96.50;;;;;;5049232;28;20366;-67
2023/07/01 02:03:10;;;;;;;;;;;17.20;96.50;;;;;;5050379;28;20478;-68
2023/07/01 02:05:36;;;;;;;6.30;1.88;;;17.20;96.50;;;;;;5050214;28;19909;-66
2023/07/01 02:08:04;;;;;;;3.65;1.98;;;17.30;96.40;;;;;;5049903;28;20090;-67
2023/07/01 02:10:31;;;;;;;5.05;1.90;;;17.20;96.40;;;;;;5050341;28;20124;-68
2023/07/01 02:12:56;;;;;;;2.13;1.83;;;17.20;96.40;;;;;;5050169;28;20372;-67
2023/07/01 02:15:22;;;;;;;4.55;1.73;;;17.20;96.40;;;;;;5050253;28;20067;-65
2023/07/01 02:17:47;;;;;;;3.28;1.77;;;17.10;96.40;;;;;;5049909;28;20056;-67
2023/07/01 02:20:13;;;;;;;5.43;2.08;;;17.20;96.50;;;;;;5049944;28;20443;-67
2023/07/01 02:22:39;;;;;;;2.33;1.48;;;17.20;96.50;;;;;;5050317;28;20025;-66
2023/07/01 02:25:05;;;;;;;4.20;1.30;;;17.20;96.50;;;;;;5049785;28;20049;-67
2023/07/01 02:27:31;;;;;;;3.83;1.65;;;17.20;96.40;;;;;;5049758;28;20029;-67
2023/07/01 02:29:58;;;;;;;3.95;2.28;;;17.20;96.40;;;;;;5049655;28;20125;-67
2023/07/01 02:32:24;;;;;;;5.85;1.65;;;17.20;96.40;;;;;;5049801;28;20029;-66
2023/07/01 02:34:50;;;;;;;2.35;1.70;;;17.30;96.40;;;;;;5050125;28;20021;-67
2023/07/01 02:37:16;;;;;;;2.95;1.67;;;17.30;96.30;;;;;;5049617;28;20112;-67
2023/07/01 02:39:44;;;;;;;6.18;1.70;;;17.20;96.20;;;;;;5049576;28;20108;-68
2023/07/01 02:42:10;;;;;;;3.75;1.50;;;17.20;96.20;;;;;;5048762;28;20056;-66
2023/07/01 02:44:36;;;;;;;6.18;2.00;;;17.20;96.20;;;;;;5049609;28;20467;-67
2023/07/01 02:47:01;;;;;;;7.32;1.70;;;17.20;96.30;;;;;;5049732;28;20021;-68
2023/07/01 02:49:27;;;;;;;2.40;1.65;;;17.10;96.20;;;;;;5050097;28;20025;-66
2023/07/01 02:51:52;;;;;;;2.95;1.48;;;17.10;96.20;;;;;;5050213;28;20431;-67
2023/07/01 02:54:18;;;;;;;4.65;1.67;;;17.10;96.10;;;;;;5049636;28;20502;-65
2023/07/01 02:56:44;;;;;;;2.72;1.52;;;17.00;96.10;;;;;;5049468;28;20121;-66
2023/07/01 02:59:10;;;;;;;4.70;1.80;;;17.00;96.30;;;;;;5047976;28;20047;-67
2023/07/01 03:01:36;;;;;;;6.97;1.92;;;17.00;96.30;;;;;;5049755;28;20451;-66
2023/07/01 03:04:04;;;;;;;7.40;1.83;;;17.00;96.30;;;;;;5049364;28;20029;-66
2023/07/01 03:06:29;;;;;;;;;;;17.00;96.30;;;;;;5048777;28;20474;-66
2023/07/01 03:08:55;;;;;;;2.03;1.40;;;17.00;96.10;;;;;;5049604;28;19917;-67
2023/07/01 03:11:21;;;;;;;3.70;1.42;;;17.00;96.30;;;;;;5051447;28;20459;-66
2023/07/01 03:13:46;;;;;;;1.80;1.30;;;17.00;96.20;;;;;;5052309;28;20060;-67
2023/07/01 03:16:13;;;;;;;3.67;1.70;;;17.00;96.10;;;;;;5051739;28;20041;-66
2023/07/01 03:18:39;;;;;;;4.03;1.95;;;17.00;96.00;;;;;;5051682;28;20075;-66
2023/07/01 03:21:05;;;;;;;4.25;1.73;;;17.00;96.00;;;;;;5051952;28;20036;-66
2023/07/01 03:23:31;;;;;;;4.07;1.70;;;17.10;96.00;;;;;;5052951;28;20104;-65
2023/07/01 03:25:56;;;;;;;6.72;1.80;;;17.10;96.00;;;;;;5053526;28;20099;-66
2023/07/01 03:28:22;;;;;;;2.95;1.52;;;17.10;95.90;;;;;;5052805;28;20029;-67
2023/07/01 03:30:48;;;;;;;4.32;1.60;;;17.20;95.90;;;;;;5052561;28;20118;-65
2023/07/01 03:33:17;;;;;;;2.55;1.60;;;17.20;95.90;;;;;;5052579;28;20127;-66
2023/07/01 03:35:43;;;;;;;2.88;1.30;;;17.20;95.90;;;;;;5051442;28;20040;-66
2023/07/01 03:38:08;;;;;;;1.55;1.45;;;17.20;95.80;;;;;;5052781;28;20044;-65
2023/07/01 03:40:34;;;;;;;2.28;1.52;;;17.20;95.80;;;;;;5052865;28;20118;-67
2023/07/01 03:42:59;;;;;;;5.85;1.60;;;17.30;95.90;;;;;;5052517;28;20056;-67
2023/07/01 03:45:25;;;;;;;2.92;1.52;;;17.30;95.90;;;;;;5052465;28;20029;-65
2023/07/01 03:47:51;;;;;;;8.23;1.70;;;17.30;95.90;;;;;;5052545;28;20040;-66
2023/07/01 03:50:16;;;;;;;3.85;1.38;;;17.30;95.80;;;;;;5052184;28;20036;-66
2023/07/01 03:52:42;;;;;;;2.20;1.33;;;17.30;95.80;;;;;;5051637;28;20056;-68
2023/07/01 03:55:13;;;;;;;5.22;1.92;;;17.30;95.90;;;;;;5052245;28;20367;-67
2023/07/01 03:57:39;;;;;;;3.97;1.48;;;17.30;95.90;;;;;;5052193;28;20036;-66
2023/07/01 04:00:17;;;;;;;3.83;1.75;;;17.40;95.90;;;;;;5052538;28;20037;-65
2023/07/01 04:02:45;;;;;;;5.25;1.73;;;17.30;95.80;;;;;;5051026;28;20358;-68
2023/07/01 04:05:11;;;;;;;8.05;1.70;;;17.40;96.00;;;;;;5084265;28;20025;-67
2023/07/01 04:07:37;;;;;;;2.88;1.65;;;17.40;95.80;;;;;;5052359;28;20021;-67
2023/07/01 04:10:06;;;;;;;2.47;1.60;;;17.40;95.90;;;;;;5050863;28;20047;-66
2023/07/01 04:12:33;;;;;;;4.78;1.60;;;17.40;95.80;;;;;;5051572;28;20094;-66
2023/07/01 04:14:59;;;;;;;4.82;1.90;;;17.40;95.80;;;;;;5050869;28;20041;-67
2023/07/01 04:17:25;;;;;;;5.68;1.63;;;17.50;95.90;;;;;;5051760;28;20411;-66
2023/07/01 04:19:51;;;;;;;6.35;2.00;;;17.40;95.80;;;;;;5052254;28;20040;-67
2023/07/01 04:22:16;;;;;;;2.97;1.38;;;17.50;95.80;;;;;;5050767;28;20041;-67
2023/07/01 04:24:42;;;;;;;4.75;1.98;;;17.50;95.70;;;;;;5051704;28;20033;-66
2023/07/01 04:27:08;;;;;;;6.47;1.50;;;17.50;95.60;;;;;;5051420;28;20029;-67
2023/07/01 04:29:33;;;;;;;3.72;1.90;;;17.50;95.50;;;;;;5051343;28;20026;-68
2023/07/01 04:31:59;;;;;;;5.63;1.63;;;17.50;95.60;;;;;;5051552;28;20056;-66
2023/07/01 04:34:25;;;;;;;3.80;1.50;;;17.50;95.60;;;;;;5051545;28;20033;-67
2023/07/01 04:36:50;;;;;;;4.70;1.50;;;17.60;95.60;;;;;;5051162;28;20044;-67
2023/07/01 04:39:16;;;;;;;5.22;1.58;;;17.50;95.50;;;;;;5051207;28;20052;-66
2023/07/01 04:41:41;;;;;;;2.97;1.77;;;17.60;95.50;;;;;;5049909;28;20044;-67
2023/07/01 04:44:07;;;;;;;6.10;1.50;;;17.60;95.50;;;;;;5051137;28;20017;-68
2023/07/01 04:46:33;;;;;;;2.53;1.35;;;17.60;95.40;;;;;;5051474;28;20027;-66
2023/07/01 04:49:01;;;;;;;8.63;1.50;;;17.60;95.40;;;;;;5051096;28;20143;-67
2023/07/01 04:51:27;;;;;;;3.72;1.45;;;17.70;95.40;;;;;;5050024;28;20029;-65
2023/07/01 04:53:53;;;;;;;2.65;1.40;;;17.70;95.40;;;;;;5050722;28;20033;-67
2023/07/01 04:56:23;;;;;;;4.32;1.63;;;17.70;95.40;;;;;;5050713;28;20048;-68
2023/07/01 04:58:49;;;;;;;7.38;1.60;;;17.80;95.30;;;;;;5051029;28;20386;-68
2023/07/01 05:01:15;;;;;;;8.18;1.90;;;17.80;95.30;;;;;;5050614;28;20058;-68
2023/07/01 05:03:40;;;;;;;3.75;1.35;;;17.80;95.20;;;;;;5051022;28;20048;-67
2023/07/01 05:06:06;;;;;;;2.17;1.55;;;17.90;95.20;;;;;;5049421;28;20065;-68
2023/07/01 05:08:32;;;;;;;5.03;1.60;;;17.90;95.20;;;;;;5050438;28;20486;-67
2023/07/01 05:10:57;;;;;;;5.82;1.40;;;18.00;95.10;;;;;;5049665;28;20053;-68
2023/07/01 05:13:23;;;;;;;5.03;1.50;;;18.00;95.00;;;;;;5050440;28;20091;-67
2023/07/01 05:15:49;;;;;;;4.38;2.03;;;18.00;95.00;;;;;;5050513;28;20029;-68
2023/07/01 05:18:14;;;;;;;3.20;1.60;;;18.10;95.00;;;;;;5050480;28;20048;-68
2023/07/01 05:20:40;;;;;;;3.92;1.48;;;18.10;95.00;;;;;;5050325;28;20037;-67
2023/07/01 05:23:05;;;;;;;2.83;1.63;;;18.20;95.10;;;;;;5050239;28;20447;-68
2023/07/01 05:25:31;;;;;;;3.83;1.83;;;18.20;95.00;;;;;;5050660;28;20443;-67
2023/07/01 05:27:57;;;;;;;2.28;1.23;;;18.30;95.10;;;;;;5050466;28;20090;-67
2023/07/01 05:30:22;;;;;;;9.05;1.80;;;18.30;95.00;;;;;;5050062;28;20140;-68
2023/07/01 05:32:48;;;;;;;3.97;1.40;;;18.40;94.90;;;;;;5050187;28;20043;-68
2023/07/01 05:35:14;;;;;;;4.53;1.55;;;18.40;94.90;;;;;;5049800;28;20029;-68
2023/07/01 05:37:40;;;;;;;4.03;1.42;;;18.50;94.70;;;;;;5049337;28;20064;-67
2023/07/01 05:40:06;;;;;;;3.00;1.58;;;18.50;94.60;;;;;;5050071;28;20173;-69
2023/07/01 05:42:32;;;;;;;3.30;1.50;;;18.50;94.50;;;;;;5049988;28;20048;-68
2023/07/01 05:44:57;;;;;;;1.73;1.48;;;18.60;94.60;;;;;;5050165;28;20463;-68
2023/07/01 05:47:23;;;;;;;1.65;1.38;;;18.50;94.50;;;;;;5049882;28;20032;-69
2023/07/01 05:49:49;;;;;;;4.88;1.48;;;18.50;94.70;;;;;;5050313;28;20024;-69
2023/07/01 05:52:14;;;;;;;2.08;1.20;;;18.60;94.70;;;;;;5049891;28;20225;-68
2023/07/01 05:54:40;;;;;;;3.42;1.90;;;18.60;94.60;;;;;;5048766;28;20057;-69
2023/07/01 05:57:06;;;;;;;3.85;1.70;;;18.60;94.60;;;;;;5049977;28;20032;-70
2023/07/01 05:59:31;;;;;;;3.97;1.50;;;18.70;94.80;;;;;;5050182;28;20083;-69
2023/07/01 06:01:57;;;;;;;2.03;1.35;;;18.70;94.60;;;;;;5050107;28;20036;-69
2023/07/01 06:04:23;;;;;;;5.15;2.05;;;18.70;94.50;;;;;;5049678;28;20075;-68
2023/07/01 06:06:48;;;;;;;3.65;1.45;;;18.70;94.20;;;;;;5049815;28;20119;-69
2023/07/01 06:09:17;;;;;;;12.88;2.80;;;18.80;94.30;;;;;;5048467;28;20029;-69
2023/07/01 06:11:43;;;;;;;7.35;2.90;;;18.80;94.30;;;;;;5049529;28;20123;-68
2023/07/01 06:14:09;;;;;;;3.13;1.80;;;18.80;94.20;;;;;;5048497;28;20104;-68
2023/07/01 06:16:34;;;;;;;5.38;3.08;;;18.90;94.40;;;;;;5050498;28;20028;-70
2023/07/01 06:19:00;;;;;;;4.45;2.38;;;18.90;94.10;;;;;;5048413;28;20174;-68
2023/07/01 06:21:26;;;;;;;5.93;4.13;;;18.90;94.00;;;;;;5049535;28;20033;-68
2023/07/01 06:23:55;;;;;;;4.90;2.50;;;19.00;94.10;;;;;;5049521;28;20037;-69
2023/07/01 06:26:22;;;;;;;6.88;1.75;;;19.00;93.80;;;;;;5048428;28;20036;-68
2023/07/01 06:28:47;;;;;;;2.97;1.42;;;19.10;93.90;;;;;;5050006;28;20057;-68
2023/07/01 06:31:13;;;;;;;3.50;1.40;;;19.10;93.70;;;;;;5049388;28;20126;-68
2023/07/01 06:33:39;;;;;;;5.45;1.50;;;19.20;93.80;;;;;;5049483;28;20075;-67
2023/07/01 06:36:06;;;;;;;5.63;1.85;;;19.10;93.60;;;;;;5049481;28;20110;-67
2023/07/01 06:38:31;;;;;;;3.70;1.60;;;19.20;93.60;;;;;;5049294;28;20040;-68
2023/07/01 06:40:57;;;;;;;2.45;1.50;;;19.20;93.60;;;;;;5049808;28;20017;-67
2023/07/01 06:43:23;;;;;;;2.85;1.45;;;19.20;93.60;;;;;;5049424;28;20040;-68
2023/07/01 06:45:48;;;;;;;6.45;1.48;;;19.20;93.70;;;;;;5050620;28;20360;-67
2023/07/01 06:48:14;;;;;;;4.82;1.55;;;19.30;93.70;;;;;;5053179;28;20374;-68
2023/07/01 06:50:40;;;;;;;4.55;2.28;;;19.30;93.70;;;;;;5053564;28;20037;-69
2023/07/01 06:53:06;;;;;;;8.80;4.18;;;19.30;93.60;;;;;;5050603;28;20136;-66
2023/07/01 06:55:32;;;;;;;5.68;1.80;;;19.30;93.60;;;;;;5054619;28;20398;-70
2023/07/01 06:58:01;;;;;;;6.65;1.60;;;19.30;93.60;;;;;;5054273;28;20059;-69
2023/07/01 07:00:29;;;;;;;4.35;1.58;;;19.30;93.60;;;;;;5054280;28;20044;-68
2023/07/01 07:02:55;;;;;;;2.28;1.30;;;19.40;93.60;;;;;;5054024;28;20037;-68
2023/07/01 07:05:20;;;;;;;3.47;1.90;;;19.40;93.60;;;;;;5053037;28;20067;-68
2023/07/01 07:07:46;;;;;;;5.82;1.77;;;19.40;93.70;;;;;;5054591;28;20029;-66
2023/07/01 07:10:12;;;;;;;3.78;1.30;;;19.40;93.70;;;;;;5056541;28;20033;-68
2023/07/01 07:12:38;;;;;;;1.98;1.40;;;19.40;93.70;;;;;;5054671;28;20475;-68
2023/07/01 07:15:04;;;;;;;2.63;1.70;;;19.40;93.60;;;;;;5054556;28;20029;-67
2023/07/01 07:17:30;;;;;;;8.57;1.90;;;19.40;93.60;;;;;;5054058;28;20041;-69
2023/07/01 07:19:56;;;;;;;3.38;1.52;;;19.50;93.70;;;;;;5054596;28;20032;-68
2023/07/01 07:22:21;;;;;;;3.22;1.75;;;19.50;93.40;;;;;;5053910;28;20528;-68
2023/07/01 07:24:47;;;;;;;10.05;3.60;;;19.50;93.50;;;;;;5053866;28;20025;-67
2023/07/01 07:27:13;;;;;;;4.35;1.83;;;19.50;93.30;;;;;;5053616;28;20458;-69
2023/07/01 07:29:39;;;;;;;1.83;1.38;;;19.40;93.20;;;;;;5053417;28;20033;-68
2023/07/01 07:32:05;;;;;;;3.95;1.30;;;19.40;93.20;;;;;;5053563;28;20039;-70
2023/07/01 07:34:31;;;;;;;3.97;1.63;;;19.40;93.30;;;;;;5054252;28;20033;-70
2023/07/01 07:36:57;;;;;;;3.38;1.67;;;19.30;93.20;;;;;;5053228;28;20036;-69
2023/07/01 07:39:23;;;;;;;3.78;1.67;;;19.40;93.30;;;;;;5053252;28;20033;-69
2023/07/01 07:41:49;;;;;;;3.15;1.30;;;19.40;93.10;;;;;;5052244;28;20036;-70
2023/07/01 07:44:15;;;;;;;4.70;1.75;;;19.50;93.20;;;;;;5052321;28;20025;-69
2023/07/01 07:46:42;;;;;;;4.43;1.48;;;19.50;93.10;;;;;;5053836;28;20036;-71
2023/07/01 07:49:08;;;;;;;4.03;2.20;;;19.60;93.40;;;;;;5053305;28;20119;-72
2023/07/01 07:51:34;;;;;;;3.80;2.63;;;19.60;93.20;;;;;;5053070;28;20084;-75
2023/07/01 07:53:59;;;;;;;3.42;1.90;;;19.60;93.30;;;;;;5053075;28;20037;-75
2023/07/01 07:56:25;;;;;;;4.18;1.60;;;19.70;93.10;;;;;;5051709;28;20035;-72
2023/07/01 07:58:51;;;;;;;4.07;1.90;;;19.60;93.00;;;;;;5052548;28;20147;-72
2023/07/01 08:01:17;;;;;;;3.80;2.20;;;19.70;93.10;;;;;;5053056;28;20295;-72
2023/07/01 08:03:43;;;;;;;3.13;1.40;;;19.60;93.10;;;;;;5053278;28;20040;-72
2023/07/01 08:06:08;;;;;;;2.35;1.75;;;19.70;92.90;;;;;;5051581;28;20455;-71
2023/07/01 08:08:35;;;;;;;2.03;1.23;;;19.60;92.90;;;;;;5051626;28;20036;-72
2023/07/01 08:11:01;;;;;;;4.60;1.88;;;19.60;92.90;;;;;;5051941;28;20086;-74
2023/07/01 08:13:27;;;;;;;9.30;1.95;;;19.60;92.80;;;;;;5052855;28;20319;-75
2023/07/01 08:15:53;;;;;;;11.30;1.85;;;19.70;92.90;;;;;;5051996;28;20168;-75
2023/07/01 08:18:19;;;;;;;7.28;1.75;;;19.70;92.90;;;;;;5051494;28;20463;-74
2023/07/01 08:20:45;;;;;;;3.55;1.85;;;19.80;93.00;;;;;;5051398;28;20045;-75
2023/07/01 08:23:13;;;;;;;3.95;2.10;;;19.80;92.90;;;;;;5051446;28;20029;-73
2023/07/01 08:25:42;;;;;;;5.05;1.90;;;19.70;92.90;;;;;;5084876;28;20409;-74
2023/07/01 08:28:08;;;;;;;9.77;2.40;;;19.80;92.80;;;;;;5051754;28;20107;-75
2023/07/01 08:30:34;;;;;;;5.25;1.80;;;19.90;92.90;;;;;;5051364;28;20091;-74
2023/07/01 08:33:00;;;;;;;4.95;1.65;;;19.80;92.90;;;;;;5051350;28;20040;-74
2023/07/01 08:35:26;;;;;;;4.97;2.00;;;19.90;92.80;;;;;;5051130;28;20037;-74
2023/07/01 08:37:51;;;;;;;8.65;2.17;;;19.90;92.70;;;;;;5051713;28;20067;-73
2023/07/01 08:40:17;;;;;;;4.97;1.77;;;19.90;92.70;;;;;;5051429;28;20061;-73
2023/07/01 08:43:00;;;;;;;2.47;1.85;;;20.00;92.70;;;;;;5051468;28;20033;-74
2023/07/01 08:45:27;;;;;;;6.78;2.03;;;20.00;92.60;;;;;;5051336;28;20040;-73
2023/07/01 08:47:53;;;;;;;3.60;1.85;;;20.10;92.40;;;;;;5083596;28;20399;-74
2023/07/01 08:50:19;;;;;;;5.45;1.80;;;20.10;92.50;;;;;;5051686;28;20455;-74
2023/07/01 08:52:47;;;;;;;4.88;2.30;;;20.20;92.40;;;;;;5051481;28;20060;-75
2023/07/01 08:55:13;;;;;;;2.80;1.80;;;20.20;92.30;;;;;;5049754;28;20086;-75
2023/07/01 08:57:40;;;;;;;5.10;2.10;;;20.30;92.40;;;;;;5050301;28;20029;-75
2023/07/01 09:00:09;;;;;;;3.22;1.80;;;20.30;92.40;;;;;;5051293;28;20063;-72
2023/07/01 09:02:35;;;;;;;6.35;1.70;;;20.40;92.30;;;;;;5050087;28;20539;-73
2023/07/01 09:05:01;;;;;;;5.97;2.15;;;20.40;92.10;;;;;;5049904;28;20041;-72
2023/07/01 09:07:29;;;;;;;6.85;2.15;;;20.50;92.20;;;;;;5050020;28;20051;-73
2023/07/01 09:10:02;;;;;;;4.45;1.95;;;20.60;92.50;;;;;;5051116;28;20029;-74
2023/07/01 09:12:29;;;;;;;3.15;1.50;;;20.70;92.10;;;;;;5085012;28;20029;-73
2023/07/01 09:15:00;;;;;;;4.53;1.63;;;20.80;92.00;;;;;;5051603;28;20033;-73
2023/07/01 09:17:33;;;;;;;2.33;1.60;;;20.80;91.90;;;;;;5053648;28;20036;-73
2023/07/01 09:20:11;;;;;;;5.22;1.88;;;20.80;91.80;;;;;;5050105;28;20036;-72
2023/07/01 09:22:38;;;;;;;5.78;2.20;;;20.80;91.90;;;;;;5050696;28;20451;-74
2023/07/01 09:25:04;;;;;;;6.78;1.98;;;20.90;91.80;;;;;;5050254;28;20520;-72
2023/07/01 09:27:46;;;;;;;9.20;2.60;;;21.00;92.20;;;;;;5050365;28;20070;-73
2023/07/01 09:30:39;;;;;;;2.17;1.45;;;21.10;91.90;;;;;;5050203;28;20091;-72
2023/07/01 09:33:13;;;;;;;6.35;1.98;;;21.20;91.90;;;;;;5049553;28;20147;-72
2023/07/01 09:35:47;;;;;;;5.97;1.92;;;21.40;91.80;;;;;;5050529;28;20375;-74
2023/07/01 09:38:14;;;;;;;5.03;2.20;;;21.40;91.60;;;;;;5050435;28;20017;-72
2023/07/01 09:40:40;;;;;;;9.18;2.03;;;21.60;91.90;;;;;;5049635;28;20086;-72
2023/07/01 09:43:06;;;;;;;5.15;2.35;;;21.60;91.50;;;;;;5050081;28;20037;-73
2023/07/01 09:45:31;;;;;;;8.45;2.58;;;21.70;91.50;;;;;;5049097;28;20033;-72
2023/07/01 09:48:08;;;;;;;6.43;2.40;;;21.70;91.10;;;;;;5050122;28;20029;-72
2023/07/01 09:50:34;;;;;;;6.90;2.10;;;21.80;91.30;;;;;;5050229;28;20127;-74
2023/07/01 09:53:00;;;;;;;5.22;2.47;;;21.80;91.20;;;;;;5050395;28;20447;-73
2023/07/01 09:55:27;;;;;;;3.78;2.08;;;21.80;91.20;;;;;;5082602;28;20041;-71
2023/07/01 09:57:53;;;;;;;7.53;2.25;;;21.70;91.20;;;;;;5082040;28;20506;-72
2023/07/01 10:00:20;;;;;;;5.47;1.77;;;21.70;91.20;;;;;;5048523;28;20033;-73
2023/07/01 10:02:47;;;;;;;8.27;2.33;;;21.60;91.20;;;;;;5049823;28;20033;-73
2023/07/01 10:05:13;;;;;;;5.88;2.90;;;21.50;91.40;;;;;;5049790;28;20025;-73
2023/07/01 10:07:40;;;;;;;7.13;2.60;;;21.50;91.50;;;;;;5049191;28;20048;-73
2023/07/01 10:10:17;;;;;;;8.57;3.43;;;21.50;91.80;;;;;;5049858;28;20044;-72
2023/07/01 10:12:45;;;;;;;6.80;2.30;;;21.40;91.50;;;;;;5049831;28;20037;-72
2023/07/01 10:15:12;;;;;;;;;;;21.40;91.60;;;;;;5050875;28;20478;-73
2023/07/01 10:17:45;;;;;;;3.97;1.90;;;21.40;91.60;;;;;;5050394;28;19991;-72
2023/07/01 10:20:31;;;;;;;5.93;2.13;;;21.40;91.70;;;;;;5082318;28;20044;-73
2023/07/01 10:23:02;;;;;;;5.05;2.00;;;21.40;91.70;;;;;;5053264;28;20406;-73
2023/07/01 10:25:37;;;;;;;3.92;2.10;;;21.30;91.90;;;;;;5053080;28;20029;-73
2023/07/01 10:28:04;;;;;;;3.92;1.95;;;21.20;92.00;;;;;;5054339;28;20029;-72
2023/07/01 10:31:02;;;;;;;3.58;2.00;;;21.20;92.10;;;;;;5053594;28;20049;-72
2023/07/01 10:33:32;;;;;;;7.60;2.47;;;21.20;92.10;;;;;;5053496;28;20056;-73
2023/07/01 10:36:04;;;;;;;8.63;2.47;;;21.20;92.20;;;;;;5053714;28;20044;-72
2023/07/01 10:38:30;;;;;;;9.57;1.80;;;21.20;92.30;;;;;;5053444;28;20029;-73
2023/07/01 10:40:56;;;;;;;6.13;2.08;;;21.20;92.40;;;;;;5086192;28;20435;-71
2023/07/01 10:43:26;;;;;;;6.13;2.42;;;21.10;92.40;;;;;;5053657;28;20033;-71
2023/07/01 10:46:21;;;;;;;5.72;2.10;;;21.10;92.40;;;;;;5053835;28;20439;-74
2023/07/01 10:49:06;;;;;;;4.75;2.20;;;21.10;92.50;;;;;;5053697;28;20044;-74
2023/07/01 10:51:48;;;;;;;5.57;2.55;;;21.10;92.60;;;;;;5085758;28;20040;-74
2023/07/01 10:54:28;;;;;;;6.30;2.58;;;21.10;92.70;;;;;;5052164;28;20053;-73
2023/07/01 10:57:10;;;;;;;4.88;1.50;;;21.10;92.90;;;;;;5053667;28;20036;-73
2023/07/01 10:59:38;;;;;;;5.28;1.90;;;21.00;93.00;;;;;;5053513;28;20040;-73
2023/07/01 11:02:03;;;;;;;3.55;1.60;;;21.00;93.00;;;;;;5053474;28;20082;-72
2023/07/01 11:05:08;;;;;;;7.07;2.35;;;21.00;93.20;;;;;;5052626;28;20037;-73
2023/07/01 11:07:36;;;;;;;4.07;2.05;;;20.90;93.50;;;;;;5052713;28;20036;-72
2023/07/01 11:10:04;;;;;;;;;;;20.90;93.60;;;;;;5052572;28;20029;-71
2023/07/01 11:12:30;;;;;;;5.72;2.10;;;20.90;93.70;;;;;;5053188;28;19913;-71
2023/07/01 11:14:56;;;;;;;3.65;2.05;;;20.80;94.10;;;;;;5052909;28;20465;-71
2023/07/01 11:17:23;;;;;;;4.50;2.08;;;20.80;94.30;;;;;;5052938;28;20033;-72
2023/07/01 11:19:56;;;;;;;3.72;2.17;;;20.80;94.50;;;;;;5052197;28;20124;-71
2023/07/01 11:22:21;;;;;;;4.97;2.08;;;20.70;94.70;;;;;;5052874;28;20033;-72
2023/07/01 11:24:47;;;;;;;3.67;1.98;;;20.60;95.10;;;;;;5052641;28;20509;-69
2023/07/01 11:27:13;;;;;;;4.47;1.42;;;20.50;95.10;;;;;;5052700;28;20057;-70
2023/07/01 11:29:41;;;;;;;2.28;1.90;;;20.60;95.20;;;;;;5052796;28;20363;-70
2023/07/01 11:32:12;;;;;;;3.97;2.28;;;20.60;95.30;;;;;;5052406;28;20329;-71
2023/07/01 11:34:39;;;;;;;5.43;2.03;;;20.60;95.40;;;;;;5053344;28;20009;-75
2023/07/01 11:37:05;;;;;;;4.05;1.88;;;20.70;95.40;;;;;;5052813;28;20124;-73
2023/07/01 11:39:31;;;;;;;9.90;2.20;;;20.70;95.30;;;;;;5085025;28;20125;-75
2023/07/01 11:42:00;;;;;;;3.88;2.00;;;20.60;95.30;;;;;;5052667;28;20116;-71
2023/07/01 11:44:28;;;;;;;3.95;1.77;;;20.60;95.40;;;;;;5052742;28;20059;-71
2023/07/01 11:46:54;;;;;;;3.67;2.03;;;20.60;95.10;;;;;;5053305;28;20017;-72
2023/07/01 11:49:31;;;;;;;4.65;1.92;;;20.70;95.20;;;;;;5052699;28;20033;-71
2023/07/01 11:51:58;;;;;;;7.18;1.92;;;20.80;95.10;;;;;;5052139;28;20033;-71
2023/07/01 11:54:40;;;;;;;4.25;2.50;;;20.80;95.20;;;;;;5052574;28;20037;-70
2023/07/01 11:57:15;;;;;;;3.17;1.67;;;20.70;95.20;;;;;;5052094;28;20037;-69
2023/07/01 11:59:45;;;;;;;7.05;2.15;;;20.60;95.40;;;;;;5052573;28;20041;-68
2023/07/01 12:02:11;;;;;;;5.20;2.33;;;20.70;95.40;;;;;;5052334;28;20100;-69
2023/07/01 12:04:37;;;;;;;3.05;1.42;;;20.70;95.40;;;;;;5052419;28;20025;-67
2023/07/01 12:07:08;;;;;;;5.78;1.77;;;20.80;95.50;;;;;;5052175;28;20051;-68
2023/07/01 12:09:34;;;;;;;3.03;2.00;;;20.80;95.50;;;;;;5051716;28;20025;-69
2023/07/01 12:12:00;;;;;;;7.20;2.30;;;20.70;95.60;;;;;;5052057;28;20100;-68
2023/07/01 12:14:26;;;;;;;4.82;2.55;;;20.80;95.70;;;;;;5050564;28;20116;-68
2023/07/01 12:16:53;;;;;;;4.72;2.25;;;20.80;95.70;;;;;;5052480;28;20075;-70
2023/07/01 12:19:20;;;;;;;6.53;3.13;;;20.80;95.70;;;;;;5084191;28;20550;-69
2023/07/01 12:21:47;;;;;;;5.35;2.10;;;20.80;95.70;;;;;;5051664;28;20370;-70
2023/07/01 12:24:23;;;;;;;4.65;2.30;;;20.90;95.80;;;;;;5051479;28;20048;-70
2023/07/01 12:26:54;;;;;;;6.13;2.35;;;20.90;95.90;;;;;;5084065;28;20402;-70
2023/07/01 12:29:21;;;;;;;6.40;2.83;;;20.80;96.10;;;;;;5051664;28;20017;-68
2023/07/01 12:31:47;;;;;;;5.00;1.97;;;20.80;96.20;;;;;;5051807;28;20059;-69
2023/07/01 12:34:14;;;;;;;2.38;1.88;;;20.70;96.40;;;;;;5051749;28;20045;-69
2023/07/01 12:36:39;;;;;;;10.50;2.83;;;20.70;96.60;;;;;;5051535;28;20033;-69
2023/07/01 12:39:07;;;;;;;8.13;2.40;;;20.80;96.60;;;;;;5051177;28;20083;-67
2023/07/01 12:41:35;;;;;;;5.28;2.53;;;20.80;96.60;;;;;;5051235;28;20364;-70
2023/07/01 12:44:08;;;;;;;6.85;2.72;;;20.80;96.70;;;;;;5050953;28;20017;-68
2023/07/01 12:46:35;;;;;;;11.68;3.00;;;20.90;96.70;;;;;;5050098;28;20041;-67
2023/07/01 12:49:03;;;;;;;8.38;3.90;;;20.90;96.80;;;;;;5050039;28;20033;-71
2023/07/01 12:51:32;;;;;;;;;;;20.90;96.90;;;;;;5051572;28;20036;-72